Time;durP1;ratioP1;P1;durP2;ratioP2;P2;SDS_P1;SDS_P2;PMS_P1;PMS_P2;Temp;Humidity;BMP_temperature;BMP_pressure;BME280_temperature;BME280_humidity;BME280_pressure;Samples;Min_cycle;Max_cycle;Signal;HPM_P1;HPM_P2
2022/05/18 00:00:56;;;;;;;9.35;4.30;;;20.40;99.90;;;;;;5054292;28;20179;-49
2022/05/18 00:03:32;;;;;;;13.10;5.18;;;20.30;99.90;;;;;;5054293;28;20166;-49
2022/05/18 00:06:00;;;;;;;3.35;2.90;;;20.30;99.90;;;;;;5054048;28;20218;-50
2022/05/18 00:08:26;;;;;;;5.80;3.88;;;20.30;99.90;;;;;;5054608;28;20571;-49
2022/05/18 00:10:52;;;;;;;6.10;3.80;;;20.20;99.90;;;;;;5054272;28;20258;-50
2022/05/18 00:13:18;;;;;;;7.72;4.75;;;20.20;99.90;;;;;;5054450;28;20163;-48
2022/05/18 00:15:45;;;;;;;6.43;3.80;;;20.20;99.90;;;;;;5054569;28;20255;-50
2022/05/18 00:18:11;;;;;;;13.23;5.35;;;20.10;99.90;;;;;;5053998;28;20168;-50
2022/05/18 00:20:36;;;;;;;4.43;3.40;;;20.10;99.90;;;;;;5053705;28;20167;-49
2022/05/18 00:23:03;;;;;;;7.75;3.22;;;20.10;99.90;;;;;;5054046;28;20185;-50
2022/05/18 00:25:33;;;;;;;4.15;3.08;;;20.10;99.90;;;;;;5054002;28;20173;-50
2022/05/18 00:27:59;;;;;;;8.63;4.10;;;20.10;99.90;;;;;;5053922;28;20250;-49
2022/05/18 00:30:26;;;;;;;5.15;3.38;;;20.00;99.90;;;;;;5054033;28;20254;-49
2022/05/18 00:32:52;;;;;;;5.75;3.13;;;20.00;99.90;;;;;;5052976;28;20605;-50
2022/05/18 00:35:18;;;;;;;10.48;6.40;;;20.00;99.90;;;;;;5053981;28;20277;-49
2022/05/18 00:37:44;;;;;;;6.50;3.85;;;19.90;99.90;;;;;;5053997;28;20185;-49
2022/05/18 00:40:12;;;;;;;4.95;3.47;;;19.90;99.90;;;;;;5053931;28;20166;-49
2022/05/18 00:42:38;;;;;;;4.63;3.10;;;19.90;99.90;;;;;;5052928;28;20173;-49
2022/05/18 00:45:05;;;;;;;7.65;3.65;;;19.90;99.90;;;;;;5053578;28;20532;-49
2022/05/18 00:47:30;;;;;;;5.30;3.63;;;19.90;99.90;;;;;;5053878;28;20629;-49
2022/05/18 00:50:00;;;;;;;6.13;4.10;;;19.90;99.90;;;;;;5053510;28;20162;-48
2022/05/18 00:52:32;;;;;;;5.90;3.45;;;19.80;99.90;;;;;;5053693;28;20221;-48
2022/05/18 00:55:00;;;;;;;5.38;3.30;;;19.80;99.90;;;;;;5053253;28;20162;-49
2022/05/18 00:57:34;;;;;;;5.55;3.08;;;19.80;99.90;;;;;;5053424;28;20177;-49
2022/05/18 01:00:09;;;;;;;6.60;3.70;;;19.80;99.90;;;;;;5053276;28;20198;-49
2022/05/18 01:02:38;;;;;;;4.63;3.63;;;19.80;99.90;;;;;;5053479;28;20166;-48
2022/05/18 01:05:08;;;;;;;6.53;3.35;;;19.80;99.90;;;;;;5053149;28;20252;-49
2022/05/18 01:07:38;;;;;;;7.63;3.45;;;19.80;99.90;;;;;;5053218;28;20278;-49
2022/05/18 01:10:04;;;;;;;6.68;3.58;;;19.70;99.90;;;;;;5053100;28;20494;-48
2022/05/18 01:12:31;;;;;;;6.18;3.08;;;19.70;99.90;;;;;;5053063;28;20171;-49
2022/05/18 01:15:02;;;;;;;8.10;2.80;;;19.80;99.90;;;;;;5052956;28;20162;-49
2022/05/18 01:17:30;;;;;;;6.50;3.40;;;19.70;99.90;;;;;;5052944;28;20171;-48
2022/05/18 01:20:00;;;;;;;5.97;3.58;;;19.70;99.90;;;;;;5052937;28;20654;-49
2022/05/18 01:22:39;;;;;;;4.25;2.75;;;19.70;99.90;;;;;;5052867;28;20171;-49
2022/05/18 01:25:22;;;;;;;4.50;3.22;;;19.70;99.90;;;;;;5052818;28;20170;-48
2022/05/18 01:27:48;;;;;;;3.58;2.72;;;19.60;99.90;;;;;;5053040;28;20181;-48
2022/05/18 01:30:13;;;;;;;8.35;3.58;;;19.70;99.90;;;;;;5053001;28;20170;-49
2022/05/18 01:32:42;;;;;;;6.35;2.95;;;19.60;99.90;;;;;;5052681;28;20665;-48
2022/05/18 01:35:10;;;;;;;5.45;3.25;;;19.60;99.90;;;;;;5052520;28;20663;-48
2022/05/18 01:37:35;;;;;;;5.75;2.97;;;19.60;99.90;;;;;;5052609;28;20178;-48
2022/05/18 01:40:08;;;;;;;8.55;2.78;;;19.60;99.90;;;;;;5052651;28;20170;-48
2022/05/18 01:42:44;;;;;;;5.57;2.78;;;19.60;99.90;;;;;;5051278;28;20261;-48
2022/05/18 01:45:10;;;;;;;5.03;2.80;;;19.60;99.90;;;;;;5052729;28;20174;-48
2022/05/18 01:47:38;;;;;;;7.13;3.08;;;19.50;99.90;;;;;;5052458;28;20219;-48
2022/05/18 01:50:08;;;;;;;4.72;2.78;;;19.50;99.90;;;;;;5051192;28;20174;-49
2022/05/18 01:52:34;;;;;;;5.38;3.17;;;19.50;99.90;;;;;;5052411;28;20208;-49
2022/05/18 01:55:00;;;;;;;7.25;3.70;;;19.50;99.90;;;;;;5052235;28;20167;-48
2022/05/18 01:57:25;;;;;;;4.93;3.30;;;19.40;99.90;;;;;;5052400;28;20185;-49
2022/05/18 01:59:51;;;;;;;11.65;3.70;;;19.40;99.90;;;;;;5052497;28;20178;-48
2022/05/18 02:02:17;;;;;;;6.60;3.30;;;19.40;99.90;;;;;;5052518;28;20166;-48
2022/05/18 02:04:42;;;;;;;4.85;3.30;;;19.40;99.90;;;;;;5052075;28;20688;-48
2022/05/18 02:07:08;;;;;;;4.75;2.88;;;19.30;99.90;;;;;;5052432;28;20167;-50
2022/05/18 02:09:34;;;;;;;10.80;3.45;;;19.30;99.90;;;;;;5052112;28;20217;-49
2022/05/18 02:12:00;;;;;;;4.13;2.42;;;19.30;99.90;;;;;;5052161;28;20158;-49
2022/05/18 02:14:26;;;;;;;9.05;3.38;;;19.30;99.90;;;;;;5052042;28;20174;-49
2022/05/18 02:16:52;;;;;;;5.82;3.42;;;19.30;99.90;;;;;;5052199;28;20210;-49
2022/05/18 02:19:17;;;;;;;11.48;3.30;;;19.30;99.90;;;;;;5052179;28;20221;-48
2022/05/18 02:21:43;;;;;;;8.00;3.65;;;19.30;99.90;;;;;;5052161;28;20167;-49
2022/05/18 02:24:09;;;;;;;4.95;2.88;;;19.30;99.90;;;;;;5051975;28;20167;-48
2022/05/18 02:26:35;;;;;;;4.80;3.25;;;19.20;99.90;;;;;;5051863;28;20544;-48
2022/05/18 02:29:01;;;;;;;6.78;3.85;;;19.10;99.90;;;;;;5052130;28;20167;-48
2022/05/18 02:31:27;;;;;;;4.57;2.88;;;19.10;99.90;;;;;;5051885;28;20167;-49
2022/05/18 02:33:52;;;;;;;6.55;2.70;;;19.10;99.90;;;;;;5051819;28;20167;-49
2022/05/18 02:36:19;;;;;;;5.55;3.53;;;19.10;99.90;;;;;;5051739;28;20210;-48
2022/05/18 02:38:44;;;;;;;6.35;3.00;;;19.10;99.90;;;;;;5052460;28;20249;-49
2022/05/18 02:41:11;;;;;;;6.20;2.67;;;19.10;99.90;;;;;;5052049;28;20216;-49
2022/05/18 02:43:38;;;;;;;5.55;3.38;;;19.10;99.90;;;;;;5051971;28;20171;-49
2022/05/18 02:46:09;;;;;;;10.32;3.03;;;19.00;99.90;;;;;;5052046;28;20194;-49
2022/05/18 02:48:36;;;;;;;9.65;4.20;;;19.00;99.90;;;;;;5051682;28;20174;-49
2022/05/18 02:51:02;;;;;;;5.55;3.70;;;19.10;99.90;;;;;;5051735;28;20628;-49
2022/05/18 02:53:28;;;;;;;7.35;3.63;;;19.00;99.90;;;;;;5051604;28;20178;-49
2022/05/18 02:56:06;;;;;;;10.23;4.70;;;19.10;99.90;;;;;;5051629;28;20229;-49
2022/05/18 02:58:47;;;;;;;6.20;3.70;;;19.00;99.90;;;;;;5051619;28;20162;-49
2022/05/18 03:01:18;;;;;;;7.55;4.65;;;19.00;99.90;;;;;;5052145;28;20190;-49
2022/05/18 03:03:45;;;;;;;11.55;4.70;;;19.00;99.90;;;;;;5051655;28;20248;-49
2022/05/18 03:06:12;;;;;;;17.48;6.68;;;19.00;99.90;;;;;;5054172;28;20186;-48
2022/05/18 03:08:40;;;;;;;12.60;5.57;;;18.90;99.90;;;;;;5055666;28;20171;-50
2022/05/18 03:11:06;;;;;;;11.82;5.53;;;18.90;99.90;;;;;;5055239;28;20189;-48
2022/05/18 03:13:32;;;;;;;11.35;4.43;;;18.90;99.90;;;;;;5055360;28;20631;-49
2022/05/18 03:15:58;;;;;;;8.95;3.85;;;18.90;99.90;;;;;;5053901;28;20559;-49
2022/05/18 03:18:25;;;;;;;11.55;5.03;;;18.90;99.90;;;;;;5055275;28;20229;-48
2022/05/18 03:23:35;;;;;;;8.23;3.85;;;18.80;99.90;;;;;;5055409;28;20181;-48
2022/05/18 03:26:01;;;;;;;5.18;3.70;;;18.90;99.90;;;;;;5055296;28;20593;-50
2022/05/18 03:28:27;;;;;;;9.05;4.78;;;18.80;99.90;;;;;;5055399;28;20170;-49
2022/05/18 03:30:52;;;;;;;5.80;3.80;;;18.80;99.90;;;;;;5053773;28;20232;-48
2022/05/18 03:33:18;;;;;;;13.02;5.93;;;18.80;99.90;;;;;;5054977;28;20624;-48
2022/05/18 03:35:48;;;;;;;10.73;5.63;;;18.80;99.90;;;;;;5055186;28;20240;-48
2022/05/18 03:38:14;;;;;;;13.68;6.88;;;18.80;99.90;;;;;;5055409;28;20171;-50
2022/05/18 03:40:39;;;;;;;11.00;5.50;;;18.80;99.90;;;;;;5054917;28;20269;-50
2022/05/18 03:43:05;;;;;;;9.40;5.13;;;18.80;99.90;;;;;;5054733;28;20163;-49
2022/05/18 03:45:33;;;;;;;9.05;5.30;;;18.80;99.90;;;;;;5055003;28;20253;-48
2022/05/18 03:47:59;;;;;;;7.90;4.15;;;18.80;99.90;;;;;;5054877;28;20253;-49
2022/05/18 03:50:28;;;;;;;11.90;6.15;;;18.80;99.90;;;;;;5054746;28;20263;-49
2022/05/18 03:52:54;;;;;;;8.73;5.10;;;18.80;99.90;;;;;;5054506;28;20265;-50
2022/05/18 03:55:19;;;;;;;13.68;6.82;;;18.80;99.90;;;;;;5054558;28;20264;-50
2022/05/18 03:57:45;;;;;;;16.67;7.55;;;18.90;99.90;;;;;;5054886;28;20749;-50
2022/05/18 04:00:11;;;;;;;15.02;8.90;;;18.90;99.90;;;;;;5054570;28;20655;-48
2022/05/18 04:02:36;;;;;;;16.88;9.85;;;18.80;99.90;;;;;;5054425;28;20698;-49
2022/05/18 04:05:02;;;;;;;40.88;17.95;;;18.80;99.90;;;;;;5054189;28;20214;-49
2022/05/18 04:07:28;;;;;;;14.07;7.65;;;18.80;99.90;;;;;;5054359;28;20176;-49
2022/05/18 04:09:53;;;;;;;13.20;7.65;;;18.90;99.90;;;;;;5053994;28;20174;-49
2022/05/18 04:12:19;;;;;;;13.07;6.65;;;18.80;99.90;;;;;;5054198;28;20174;-49
2022/05/18 04:14:44;;;;;;;14.55;7.93;;;18.80;99.90;;;;;;5054483;28;20206;-49
2022/05/18 04:17:10;;;;;;;8.07;6.03;;;18.80;99.90;;;;;;5052845;28;20210;-48
2022/05/18 04:19:35;;;;;;;29.35;12.70;;;18.80;99.90;;;;;;5053900;28;20206;-49
2022/05/18 04:22:01;;;;;;;10.23;7.05;;;18.80;99.90;;;;;;5053704;28;20260;-49
2022/05/18 04:24:26;;;;;;;11.63;6.82;;;18.90;99.90;;;;;;5054034;28;20173;-49
2022/05/18 04:26:53;;;;;;;21.90;9.88;;;18.90;99.90;;;;;;5053881;28;20261;-49
2022/05/18 04:29:18;;;;;;;24.10;10.05;;;18.80;99.90;;;;;;5053953;28;20171;-48
2022/05/18 04:31:45;;;;;;;15.07;6.88;;;18.80;99.90;;;;;;5054066;28;20166;-49
2022/05/18 04:34:11;;;;;;;10.27;6.43;;;18.80;99.90;;;;;;5053869;28;20171;-49
2022/05/18 04:36:36;;;;;;;17.13;7.78;;;18.80;99.90;;;;;;5053671;28;20210;-49
2022/05/18 04:39:02;;;;;;;17.30;9.20;;;18.90;99.90;;;;;;5052015;28;20166;-48
2022/05/18 04:41:27;;;;;;;18.58;8.77;;;19.10;99.90;;;;;;5053625;28;20220;-49
2022/05/18 04:43:53;;;;;;;13.63;6.55;;;19.10;99.90;;;;;;5053694;28;20166;-48
2022/05/18 04:46:18;;;;;;;14.60;9.90;;;19.10;99.90;;;;;;5053656;28;20202;-48
2022/05/18 04:48:44;;;;;;;14.60;8.40;;;19.10;99.90;;;;;;5052527;28;20170;-48
2022/05/18 04:51:09;;;;;;;10.90;6.85;;;19.20;99.90;;;;;;5053470;28;20208;-48
2022/05/18 04:53:36;;;;;;;10.18;6.68;;;19.30;99.90;;;;;;5052203;28;20655;-48
2022/05/18 04:56:03;;;;;;;12.55;5.80;;;19.30;99.90;;;;;;5053075;28;20604;-47
2022/05/18 04:58:29;;;;;;;11.38;6.57;;;19.20;99.90;;;;;;5053052;28;20159;-48
2022/05/18 05:01:01;;;;;;;9.80;6.13;;;19.20;99.90;;;;;;5053281;28;20259;-49
2022/05/18 05:03:27;;;;;;;10.68;5.97;;;19.30;99.90;;;;;;5053314;28;20163;-49
2022/05/18 05:05:52;;;;;;;8.35;5.82;;;19.50;99.90;;;;;;5053113;28;20230;-48
2022/05/18 05:08:18;;;;;;;10.07;5.38;;;19.60;99.90;;;;;;5053443;28;20173;-48
2022/05/18 05:10:44;;;;;;;7.97;5.57;;;19.70;99.90;;;;;;5052150;28;20317;-48
2022/05/18 05:13:09;;;;;;;7.70;5.25;;;19.80;99.90;;;;;;5053097;28;20718;-48
2022/05/18 05:15:37;;;;;;;9.77;5.38;;;19.80;99.90;;;;;;5052924;28;20214;-49
2022/05/18 05:18:02;;;;;;;9.35;5.28;;;19.90;99.90;;;;;;5053221;28;20301;-49
2022/05/18 05:20:28;;;;;;;8.40;5.00;;;19.90;99.90;;;;;;5052910;28;20253;-47
2022/05/18 05:22:54;;;;;;;5.80;4.70;;;19.90;99.90;;;;;;5052943;28;20177;-48
2022/05/18 05:25:19;;;;;;;10.55;5.47;;;19.90;99.90;;;;;;5052804;28;20167;-47
2022/05/18 05:27:45;;;;;;;11.48;5.13;;;20.10;99.90;;;;;;5052712;28;20173;-50
2022/05/18 05:30:12;;;;;;;10.00;5.57;;;20.30;99.90;;;;;;5053049;28;20257;-49
2022/05/18 05:32:38;;;;;;;14.10;5.68;;;20.30;99.90;;;;;;5052699;28;20632;-50
2022/05/18 05:35:04;;;;;;;7.65;5.03;;;20.30;99.90;;;;;;5052725;28;20171;-49
2022/05/18 05:37:30;;;;;;;11.13;5.30;;;20.40;99.90;;;;;;5052681;28;20225;-49
2022/05/18 05:39:56;;;;;;;14.75;5.72;;;20.40;99.90;;;;;;5052612;28;20245;-49
2022/05/18 05:42:22;;;;;;;6.68;5.03;;;20.40;99.90;;;;;;5052393;28;20197;-49
2022/05/18 05:44:48;;;;;;;10.02;5.38;;;20.50;99.90;;;;;;5052679;28;20167;-49
2022/05/18 05:47:13;;;;;;;14.02;5.35;;;20.50;99.90;;;;;;5052393;28;20232;-49
2022/05/18 05:49:39;;;;;;;6.88;4.68;;;20.60;99.90;;;;;;5052195;28;20171;-48
2022/05/18 05:52:07;;;;;;;9.18;5.00;;;20.70;99.90;;;;;;5052399;28;20174;-49
2022/05/18 05:54:33;;;;;;;7.63;4.57;;;20.70;99.90;;;;;;5052188;28;20632;-49
2022/05/18 05:57:01;;;;;;;28.05;6.43;;;20.90;99.90;;;;;;5052035;28;20221;-48
2022/05/18 05:59:27;;;;;;;14.02;5.43;;;20.90;99.90;;;;;;5050921;28;20247;-47
2022/05/18 06:01:53;;;;;;;10.05;5.22;;;21.10;99.90;;;;;;5052089;28;20198;-48
2022/05/18 06:04:18;;;;;;;11.93;4.53;;;21.00;99.90;;;;;;5052357;28;20770;-48
2022/05/18 06:06:44;;;;;;;12.15;4.95;;;21.10;99.90;;;;;;5052732;28;20253;-48
2022/05/18 06:09:10;;;;;;;13.82;5.15;;;21.30;99.90;;;;;;5052138;28;20185;-48
2022/05/18 06:11:36;;;;;;;18.40;4.78;;;21.30;99.90;;;;;;5052378;28;20651;-49
2022/05/18 06:14:03;;;;;;;12.18;4.68;;;21.30;99.90;;;;;;5050091;28;20167;-51
2022/05/18 06:16:29;;;;;;;7.00;4.75;;;21.30;99.90;;;;;;5050665;28;20691;-49
2022/05/18 06:18:54;;;;;;;12.00;4.82;;;21.30;99.90;;;;;;5050347;28;20210;-49
2022/05/18 06:21:20;;;;;;;10.90;5.30;;;21.40;99.90;;;;;;5050851;28;20170;-49
2022/05/18 06:23:45;;;;;;;23.20;5.90;;;21.50;99.90;;;;;;5050955;28;20683;-51
2022/05/18 06:26:11;;;;;;;11.98;4.63;;;21.40;99.90;;;;;;5049214;28;20170;-47
2022/05/18 06:28:37;;;;;;;7.32;4.38;;;21.60;99.90;;;;;;5050519;28;20175;-51
2022/05/18 06:31:06;;;;;;;10.40;4.30;;;21.70;99.90;;;;;;5050749;28;20244;-50
2022/05/18 06:33:32;;;;;;;7.28;4.43;;;21.80;99.90;;;;;;5050539;28;20656;-49
2022/05/18 06:35:57;;;;;;;11.25;4.63;;;21.80;99.90;;;;;;5050308;28;20545;-51
2022/05/18 06:38:23;;;;;;;11.82;4.65;;;21.90;99.90;;;;;;5050484;28;20691;-51
2022/05/18 06:43:33;;;;;;;7.15;4.38;;;22.20;99.90;;;;;;5054559;28;20173;-51
2022/05/18 06:46:00;;;;;;;9.82;4.45;;;22.30;99.90;;;;;;5054461;28;20174;-51
2022/05/18 06:48:25;;;;;;;9.88;4.60;;;22.30;99.90;;;;;;5054786;28;20198;-51
2022/05/18 06:50:51;;;;;;;14.57;4.55;;;22.40;99.90;;;;;;5054373;28;20244;-51
2022/05/18 06:53:16;;;;;;;13.20;4.78;;;22.50;99.90;;;;;;5054670;28;20166;-51
2022/05/18 06:55:42;;;;;;;12.75;4.43;;;22.50;99.90;;;;;;5054473;28;20205;-51
2022/05/18 06:58:07;;;;;;;35.97;5.63;;;22.60;99.90;;;;;;5054297;28;20705;-51
2022/05/18 07:00:33;;;;;;;32.30;6.47;;;22.70;99.90;;;;;;5054271;28;20636;-51
2022/05/18 07:02:58;;;;;;;9.38;4.13;;;22.80;99.90;;;;;;5054024;28;20225;-51
2022/05/18 07:05:24;;;;;;;6.90;3.75;;;22.90;99.90;;;;;;5053945;28;20245;-51
2022/05/18 07:07:50;;;;;;;7.07;3.42;;;23.00;99.90;;;;;;5054038;28;20174;-51
2022/05/18 07:10:15;;;;;;;6.00;4.18;;;23.00;99.90;;;;;;5054355;28;20167;-51
2022/05/18 07:12:41;;;;;;;5.90;3.90;;;23.20;99.90;;;;;;5053910;28;20538;-51
2022/05/18 07:15:07;;;;;;;8.88;4.07;;;23.20;99.90;;;;;;5053789;28;20625;-51
2022/05/18 07:17:33;;;;;;;8.75;4.18;;;23.20;99.90;;;;;;5053880;28;20202;-51
2022/05/18 07:19:59;;;;;;;8.82;3.58;;;23.40;99.90;;;;;;5053814;28;20205;-51
2022/05/18 07:22:24;;;;;;;7.78;3.78;;;23.30;99.90;;;;;;5054072;28;20194;-51
2022/05/18 07:24:50;;;;;;;12.65;4.07;;;23.40;99.90;;;;;;5053679;28;20177;-51
2022/05/18 07:27:16;;;;;;;6.22;3.70;;;23.50;99.90;;;;;;5054382;28;20162;-50
2022/05/18 07:29:42;;;;;;;7.30;3.80;;;23.50;99.90;;;;;;5053698;28;20167;-51
2022/05/18 07:32:08;;;;;;;9.35;4.20;;;23.60;99.90;;;;;;5053646;28;20179;-51
2022/05/18 07:34:35;;;;;;;7.45;3.85;;;23.80;99.90;;;;;;5053595;28;20179;-51
2022/05/18 07:37:01;;;;;;;8.93;3.72;;;23.80;99.90;;;;;;5053364;28;20707;-51
2022/05/18 07:39:28;;;;;;;5.97;3.60;;;24.00;99.90;;;;;;5053902;28;20636;-51
2022/05/18 07:41:55;;;;;;;7.03;3.75;;;24.00;99.90;;;;;;5053696;28;20186;-51
2022/05/18 07:44:21;;;;;;;5.90;3.63;;;24.10;99.90;;;;;;5053620;28;20301;-51
2022/05/18 07:46:47;;;;;;;7.65;3.47;;;24.40;99.90;;;;;;5053823;28;20212;-51
2022/05/18 07:49:12;;;;;;;9.10;3.80;;;24.40;99.90;;;;;;5053625;28;20233;-51
2022/05/18 07:51:38;;;;;;;5.22;3.50;;;24.60;99.90;;;;;;5053473;28;20841;-51
2022/05/18 07:54:03;;;;;;;6.70;3.35;;;24.60;99.90;;;;;;5053558;28;20336;-51
2022/05/18 07:56:29;;;;;;;6.15;3.67;;;24.50;99.90;;;;;;5053154;28;20595;-51
2022/05/18 07:58:54;;;;;;;7.45;3.85;;;24.80;99.90;;;;;;5052955;28;20167;-51
2022/05/18 08:01:20;;;;;;;5.68;3.28;;;25.00;99.90;;;;;;5053369;28;20527;-51
2022/05/18 08:03:47;;;;;;;12.07;3.42;;;24.90;99.90;;;;;;5053428;28;20628;-51
2022/05/18 08:06:13;;;;;;;6.53;3.17;;;24.90;99.90;;;;;;5052981;28;20639;-51
2022/05/18 08:08:38;;;;;;;13.50;3.75;;;24.90;99.90;;;;;;5052917;28;20177;-51
2022/05/18 08:16:34;;;;;;;8.13;3.38;;;25.30;99.90;;;;;;5052788;28;20272;-51
2022/05/18 08:19:00;;;;;;;7.28;3.25;;;25.30;99.90;;;;;;5052842;28;20228;-51
2022/05/18 08:21:25;;;;;;;6.72;3.42;;;25.40;99.90;;;;;;5052779;28;20671;-51
2022/05/18 08:23:52;;;;;;;10.82;3.28;;;25.90;99.90;;;;;;5052715;28;20162;-51
2022/05/18 08:26:18;;;;;;;14.18;4.15;;;25.70;99.90;;;;;;5053166;28;20304;-51
2022/05/18 08:28:43;;;;;;;5.40;3.40;;;25.70;99.90;;;;;;5052725;28;20250;-51
2022/05/18 08:31:09;;;;;;;12.55;3.60;;;25.80;99.90;;;;;;5052478;28;20170;-51
2022/05/18 08:33:35;;;;;;;6.68;3.83;;;26.00;99.90;;;;;;5052590;28;20175;-51
2022/05/18 08:36:03;;;;;;;8.60;3.35;;;26.10;99.90;;;;;;5052465;28;20230;-51
2022/05/18 08:38:29;;;;;;;5.38;3.03;;;26.10;99.90;;;;;;5052369;28;20658;-51
2022/05/18 08:41:20;;;;;;;5.35;3.08;;;26.30;99.90;;;;;;5052349;28;20249;-51
2022/05/18 08:43:50;;;;;;;7.45;2.65;;;26.50;99.90;;;;;;5049579;28;20226;-51
2022/05/18 08:46:27;;;;;;;9.52;2.60;;;26.50;99.90;;;;;;5052738;28;20212;-51
2022/05/18 08:49:00;;;;;;;7.07;2.95;;;26.50;99.90;;;;;;5052105;28;20162;-52
2022/05/18 08:51:33;;;;;;;5.32;2.60;;;26.60;99.90;;;;;;5052523;28;20232;-52
2022/05/18 08:54:25;;;;;;;5.50;2.88;;;26.50;99.90;;;;;;5052179;28;20671;-51
2022/05/18 08:56:54;;;;;;;7.32;2.70;;;27.50;99.90;;;;;;5052067;28;20205;-51
2022/05/18 08:59:25;;;;;;;5.75;2.63;;;26.90;99.90;;;;;;5051850;28;20158;-50
2022/05/18 09:01:55;;;;;;;5.75;2.78;;;27.00;99.90;;;;;;5051849;28;20193;-51
2022/05/18 09:04:35;;;;;;;6.07;2.63;;;27.10;99.90;;;;;;5051487;28;20582;-51
2022/05/18 09:07:05;;;;;;;4.80;2.42;;;27.20;99.90;;;;;;5050721;28;20170;-50
2022/05/18 09:12:34;;;;;;;6.82;2.28;;;27.10;99.90;;;;;;5052027;28;20185;-50
2022/05/18 09:15:03;;;;;;;24.02;3.42;;;27.20;99.90;;;;;;5051549;28;20257;-50
2022/05/18 09:17:35;;;;;;;7.30;3.33;;;27.40;99.90;;;;;;5052068;28;20213;-50
2022/05/18 09:20:13;;;;;;;6.43;2.58;;;27.40;99.90;;;;;;5051830;28;20635;-50
2022/05/18 09:23:09;;;;;;;5.85;2.70;;;27.60;99.90;;;;;;5052016;28;20239;-50
2022/05/18 09:25:59;;;;;;;8.63;3.13;;;27.80;99.90;;;;;;5051620;28;20162;-50
2022/05/18 09:28:46;;;;;;;5.60;3.08;;;27.70;99.90;;;;;;5051687;28;20395;-50
2022/05/18 09:31:51;;;;;;;6.10;2.95;;;27.90;99.90;;;;;;5050308;28;20170;-50
2022/05/18 09:34:39;;;;;;;5.70;3.03;;;27.90;99.90;;;;;;5051762;28;20190;-50
2022/05/18 09:37:16;;;;;;;14.45;4.03;;;28.10;99.90;;;;;;5049918;28;20218;-51
2022/05/18 09:39:51;;;;;;;12.10;3.13;;;28.20;99.90;;;;;;5051225;28;20248;-50
2022/05/18 09:42:22;;;;;;;5.35;2.72;;;28.30;99.90;;;;;;5051711;28;20161;-51
2022/05/18 09:44:59;;;;;;;5.57;2.72;;;28.30;99.90;;;;;;5051619;28;20166;-50
2022/05/18 09:47:27;;;;;;;6.00;2.60;;;28.50;99.90;;;;;;5051212;28;20196;-51
2022/05/18 09:49:56;;;;;;;9.55;3.42;;;28.40;99.90;;;;;;5051417;28;20181;-50
2022/05/18 09:52:28;;;;;;;5.55;3.00;;;28.50;99.90;;;;;;5051037;28;20154;-51
2022/05/18 09:54:56;;;;;;;7.90;5.00;;;28.60;99.90;;;;;;5051048;28;20231;-51
2022/05/18 09:57:31;;;;;;;6.57;3.30;;;28.50;99.90;;;;;;5051163;28;20210;-51
2022/05/18 10:00:14;;;;;;;8.55;4.40;;;28.80;99.90;;;;;;5051104;28;20165;-51
2022/05/18 10:08:23;;;;;;;7.32;3.35;;;28.90;99.90;;;;;;5051201;28;20228;-51
2022/05/18 10:10:57;;;;;;;7.25;3.17;;;29.10;99.90;;;;;;5051160;28;20647;-51
2022/05/18 10:13:26;;;;;;;7.53;3.45;;;29.10;99.90;;;;;;5051109;28;20221;-51
2022/05/18 10:16:18;;;;;;;6.88;4.40;;;29.00;99.90;;;;;;5049882;28;20694;-51
2022/05/18 10:18:52;;;;;;;12.23;5.85;;;29.00;99.90;;;;;;5051007;28;20158;-51
2022/05/18 10:21:31;;;;;;;9.18;4.35;;;29.10;99.90;;;;;;5051051;28;20162;-50
2022/05/18 10:24:05;;;;;;;15.82;10.55;;;29.10;99.90;;;;;;5049447;28;20642;-50
2022/05/18 10:26:40;;;;;;;12.88;7.57;;;29.30;99.90;;;;;;5050652;28;20253;-51
2022/05/18 10:29:13;;;;;;;9.85;5.82;;;29.40;99.90;;;;;;5050640;28;20249;-51
2022/05/18 10:31:42;;;;;;;5.38;3.60;;;29.40;99.90;;;;;;5050779;28;20178;-51
2022/05/18 10:34:24;;;;;;;6.70;3.90;;;29.40;99.90;;;;;;5050853;28;20192;-51
2022/05/18 10:36:53;;;;;;;5.45;2.97;;;29.30;99.90;;;;;;5050985;28;20206;-51
2022/05/18 10:39:34;;;;;;;16.33;4.60;;;29.40;99.90;;;;;;5050869;28;20170;-51
2022/05/18 10:42:08;;;;;;;10.30;5.38;;;29.30;99.90;;;;;;5050649;28;20170;-50
2022/05/18 10:44:35;;;;;;;26.55;7.68;;;29.50;99.90;;;;;;5050475;28;20172;-52
2022/05/18 10:47:36;;;;;;;7.85;4.00;;;29.70;99.90;;;;;;5050768;28;20173;-52
2022/05/18 10:50:25;;;;;;;7.65;3.60;;;29.60;99.90;;;;;;5050801;28;20158;-52
2022/05/18 10:53:00;;;;;;;7.32;4.35;;;29.70;99.90;;;;;;5050488;28;20253;-51
2022/05/18 10:55:28;;;;;;;5.50;2.53;;;29.70;99.90;;;;;;5050657;28;20177;-51
2022/05/18 10:58:05;;;;;;;5.32;2.70;;;29.80;99.90;;;;;;5050533;28;20170;-52
2022/05/18 11:00:50;;;;;;;6.15;3.00;;;29.80;99.90;;;;;;5050470;28;20647;-52
2022/05/18 11:03:37;;;;;;;14.52;4.07;;;30.00;99.90;;;;;;5050770;28;20166;-51
2022/05/18 11:06:27;;;;;;;6.03;3.20;;;30.00;99.90;;;;;;5050283;28;20218;-52
2022/05/18 11:08:56;;;;;;;10.40;3.58;;;30.00;99.90;;;;;;5050375;28;20170;-52
2022/05/18 11:11:39;;;;;;;7.93;3.00;;;30.00;99.90;;;;;;5050401;28;20170;-52
2022/05/18 11:14:14;;;;;;;8.75;2.95;;;30.30;99.90;;;;;;5050364;28;20178;-52
2022/05/18 11:17:00;;;;;;;6.55;4.82;;;30.50;99.90;;;;;;5050240;28;20198;-52
2022/05/18 11:19:55;;;;;;;8.50;5.85;;;30.40;99.90;;;;;;5039289;28;20186;-52
2022/05/18 11:22:45;;;;;;;6.10;3.42;;;30.40;99.90;;;;;;5050291;28;20505;-51
2022/05/18 11:25:22;;;;;;;7.07;5.50;;;30.60;99.90;;;;;;5050331;28;20192;-52
2022/05/18 11:27:59;;;;;;;4.60;2.92;;;30.60;99.90;;;;;;5053636;28;20503;-52
2022/05/18 11:30:34;;;;;;;3.28;2.75;;;30.70;98.60;;;;;;5054206;28;20312;-52
2022/05/18 11:33:28;;;;;;;7.00;3.47;;;30.50;97.90;;;;;;5053682;28;20158;-52
2022/05/18 11:36:17;;;;;;;8.73;4.10;;;30.70;98.20;;;;;;5053721;28;20247;-52
2022/05/18 11:38:56;;;;;;;12.60;3.22;;;30.80;99.20;;;;;;5053790;28;20249;-52
2022/05/18 11:41:24;;;;;;;12.18;3.40;;;30.70;96.10;;;;;;5053794;28;20162;-51
2022/05/18 11:44:11;;;;;;;8.25;2.60;;;30.90;94.80;;;;;;5054068;28;20174;-52
2022/05/18 11:46:39;;;;;;;8.98;4.40;;;30.90;93.90;;;;;;5045974;28;20170;-51
2022/05/18 11:49:23;;;;;;;11.27;7.68;;;30.80;94.80;;;;;;5038685;28;20197;-52
2022/05/18 11:51:52;;;;;;;8.05;3.63;;;31.00;96.40;;;;;;5033821;28;20166;-52
2022/05/18 11:54:39;;;;;;;12.75;8.40;;;31.10;95.30;;;;;;5033813;28;20170;-52
2022/05/18 11:57:36;;;;;;;13.75;9.77;;;31.10;96.10;;;;;;5033382;28;20761;-50
2022/05/18 12:00:08;;;;;;;7.20;3.92;;;31.30;94.40;;;;;;5033327;28;20220;-52
2022/05/18 12:02:48;;;;;;;5.35;2.90;;;31.30;94.30;;;;;;5033105;28;20163;-52
2022/05/18 12:05:25;;;;;;;5.43;2.55;;;31.20;93.60;;;;;;5033287;28;20224;-52
2022/05/18 12:08:24;;;;;;;6.85;2.30;;;31.40;93.30;;;;;;5033169;28;20675;-51
2022/05/18 12:11:11;;;;;;;4.45;2.53;;;31.30;93.80;;;;;;5033248;28;20237;-52
2022/05/18 12:13:57;;;;;;;7.55;2.42;;;31.40;93.50;;;;;;5022087;28;20619;-52
2022/05/18 12:16:48;;;;;;;2.70;2.15;;;31.10;91.90;;;;;;5033125;28;20202;-51
2022/05/18 12:19:32;;;;;;;3.88;2.30;;;31.20;92.90;;;;;;5032983;28;20159;-51
2022/05/18 12:22:27;;;;;;;4.18;2.40;;;31.40;91.70;;;;;;5032935;28;20703;-52
2022/05/18 12:24:53;;;;;;;4.13;2.30;;;31.50;92.30;;;;;;5032896;28;20167;-52
2022/05/18 12:27:21;;;;;;;5.10;2.10;;;31.40;91.10;;;;;;5033259;28;20258;-53
2022/05/18 12:29:48;;;;;;;4.85;2.03;;;31.30;90.20;;;;;;5033189;28;20205;-51
2022/05/18 12:32:15;;;;;;;7.82;2.35;;;31.40;90.10;;;;;;5032887;28;20174;-52
2022/05/18 12:35:12;;;;;;;3.67;2.17;;;31.80;89.40;;;;;;5031731;28;20206;-52
2022/05/18 12:38:22;;;;;;;3.70;2.05;;;31.50;89.20;;;;;;5030717;28;20210;-51
2022/05/18 12:41:02;;;;;;;5.43;2.47;;;31.60;90.20;;;;;;5032649;28;20238;-52
2022/05/18 12:43:45;;;;;;;7.35;2.33;;;31.70;92.20;;;;;;5032388;28;20647;-52
2022/05/18 12:46:14;;;;;;;3.15;2.10;;;31.90;90.40;;;;;;5032276;28;20167;-52
2022/05/18 12:48:48;;;;;;;2.67;2.15;;;31.80;88.30;;;;;;5032169;28;20185;-52
2022/05/18 12:51:25;;;;;;;6.90;2.10;;;31.40;88.20;;;;;;5031436;28;20170;-52
2022/05/18 12:53:51;;;;;;;2.80;2.22;;;31.60;89.60;;;;;;5032253;28;20200;-52
2022/05/18 12:56:26;;;;;;;3.88;2.20;;;31.60;87.90;;;;;;5032489;28;20241;-52
2022/05/18 12:58:58;;;;;;;7.88;2.53;;;31.80;90.00;;;;;;5032339;28;20167;-51
2022/05/18 13:01:28;;;;;;;3.83;2.47;;;31.90;90.10;;;;;;5032463;28;20527;-52
2022/05/18 13:04:09;;;;;;;10.77;2.88;;;32.10;89.30;;;;;;5031654;28;20534;-50
2022/05/18 13:06:35;;;;;;;6.80;2.70;;;31.80;88.20;;;;;;5031793;28;20183;-51
2022/05/18 13:09:00;;;;;;;12.88;2.95;;;31.40;90.60;;;;;;5031194;28;20170;-51
2022/05/18 13:11:33;;;;;;;6.82;2.40;;;31.30;90.70;;;;;;5032140;28;20177;-51
2022/05/18 13:13:58;;;;;;;4.45;2.35;;;31.70;90.50;;;;;;5032031;28;20528;-51
2022/05/18 13:16:38;;;;;;;6.75;2.47;;;31.60;90.00;;;;;;5030666;28;20203;-51
2022/05/18 13:19:13;;;;;;;18.63;2.63;;;31.20;90.30;;;;;;5031890;28;20167;-51